Combine, Texas
Current Conditions -  °F | °C
As of 5:50 PM on Saturday 22 Nov 2014 (Local Time) from KHQZ Reporting Station
Overcast Overcast  
Wind Chill: 61°   Ceiling: 11000
Heat Index: 61°   Visibility: 10mi
Dew Point: 59°   Wind: 10mph
Humidity: 94%   Direction: 130°SE
Pressure: 29.84"   Gusts: NA
Location:  32.6388°N, 96.5631°W
Report Text: KHQZ 222350Z 13009KT 10SM SCT075 OVC110 16/15 A2984
Loading
Personal Weather Stations






























Interactive Weather Map New forecast layout! Learn more

10-Day Weather Forecast

Advertisements
Track Severe Weather on mobile